createdAt,value
2018-09-26T00:00:38.391Z,86.72
2018-09-26T00:01:38.390Z,86.34
2018-09-26T00:02:38.378Z,86.24
2018-09-26T00:03:38.372Z,86.82
2018-09-26T00:04:38.361Z,86.72
2018-09-26T00:05:38.354Z,86.34
2018-09-26T00:06:38.698Z,86.72
2018-09-26T00:07:38.339Z,87.29
2018-09-26T00:08:38.337Z,87.38
2018-09-26T00:09:38.329Z,87.29
2018-09-26T00:10:38.323Z,87.10
2018-09-26T00:11:38.312Z,87.01
2018-09-26T00:12:38.307Z,87.19
2018-09-26T00:13:38.301Z,87.10
2018-09-26T00:14:38.289Z,87.01
2018-09-26T00:15:38.282Z,87.01
2018-09-26T00:16:38.274Z,87.76
2018-09-26T00:17:38.266Z,87.76
2018-09-26T00:18:38.258Z,87.86
2018-09-26T00:19:38.250Z,87.76
2018-09-26T00:20:38.260Z,87.38
2018-09-26T00:21:38.236Z,87.86
2018-09-26T00:22:38.238Z,87.95
2018-09-26T00:23:38.221Z,87.01
2018-09-26T00:24:38.214Z,87.01
2018-09-26T00:25:38.207Z,87.10
2018-09-26T00:26:38.199Z,87.01
2018-09-26T00:27:38.203Z,87.01
2018-09-26T00:28:38.188Z,87.10
2018-09-26T00:29:38.181Z,87.01
2018-09-26T00:30:38.173Z,87.29
2018-09-26T00:31:38.161Z,87.10
2018-09-26T00:32:38.155Z,87.38
2018-09-26T00:33:38.155Z,87.76
2018-09-26T00:34:38.139Z,87.76
2018-09-26T00:35:38.168Z,87.10
2018-09-26T00:36:38.128Z,87.19
2018-09-26T00:37:39.085Z,87.19
2018-09-26T00:38:38.109Z,86.53
2018-09-26T00:39:38.127Z,86.91
2018-09-26T00:40:38.097Z,87.10
2018-09-26T00:41:38.088Z,86.72
2018-09-26T00:42:38.082Z,87.01
2018-09-26T00:43:38.096Z,87.10
2018-09-26T00:44:38.066Z,86.53
2018-09-26T00:45:38.059Z,86.53
2018-09-26T00:46:38.054Z,86.91
2018-09-26T00:47:38.043Z,86.72
2018-09-26T00:48:38.038Z,86.43
2018-09-26T00:49:38.028Z,86.39
2018-09-26T00:50:38.025Z,86.91
2018-09-26T00:51:38.012Z,86.53
2018-09-26T00:52:38.005Z,86.63
2018-09-26T00:53:37.996Z,86.39
2018-09-26T00:54:37.991Z,86.34
2018-09-26T00:55:37.982Z,86.53
2018-09-26T00:56:37.974Z,86.77
2018-09-26T00:57:37.970Z,86.53
2018-09-26T00:58:37.959Z,86.53
2018-09-26T00:59:37.954Z,86.91
2018-09-26T01:00:37.946Z,86.49
2018-09-26T01:01:37.937Z,87.05
2018-09-26T01:02:37.931Z,86.49
2018-09-26T01:03:37.952Z,86.53
2018-09-26T01:04:37.918Z,86.72
2018-09-26T01:05:37.909Z,86.49
2018-09-26T01:06:37.900Z,87.34
2018-09-26T01:07:37.890Z,87.24
2018-09-26T01:08:37.884Z,86.91
2018-09-26T01:09:37.879Z,86.96
2018-09-26T01:10:37.870Z,87.01
2018-09-26T01:11:37.862Z,87.19
2018-09-26T01:12:37.856Z,87.19
2018-09-26T01:13:37.850Z,87.19
2018-09-26T01:14:37.840Z,86.63
2018-09-26T01:15:37.833Z,87.10
2018-09-26T01:16:37.831Z,86.82
2018-09-26T01:17:37.817Z,87.10
2018-09-26T01:18:37.814Z,86.82
2018-09-26T01:19:37.801Z,87.01
2018-09-26T01:20:37.796Z,87.01
2018-09-26T01:21:37.792Z,86.82
2018-09-26T01:22:37.779Z,87.01
2018-09-26T01:23:37.788Z,87.01
2018-09-26T01:24:37.764Z,87.01
2018-09-26T01:25:37.758Z,86.91
2018-09-26T01:26:37.749Z,86.96
2018-09-26T01:27:37.742Z,86.77
2018-09-26T01:28:37.734Z,86.72
2018-09-26T01:29:37.727Z,86.43
2018-09-26T01:30:37.733Z,87.38
2018-09-26T01:31:37.714Z,86.39
2018-09-26T01:32:37.712Z,87.38
2018-09-26T01:33:37.697Z,86.63
2018-09-26T01:34:37.695Z,86.72
2018-09-26T01:35:37.681Z,86.58
2018-09-26T01:36:37.673Z,86.43
2018-09-26T01:37:37.668Z,87.48
2018-09-26T01:38:37.861Z,86.53
2018-09-26T01:39:37.653Z,86.82
2018-09-26T01:40:37.643Z,86.63
2018-09-26T01:41:37.637Z,86.63
2018-09-26T01:42:37.629Z,86.72
2018-09-26T01:43:37.621Z,87.15
2018-09-26T01:44:37.614Z,87.19
2018-09-26T01:45:37.609Z,87.48
2018-09-26T01:46:37.602Z,87.19
2018-09-26T01:47:37.590Z,87.19
2018-09-26T01:48:37.583Z,87.34
2018-09-26T01:49:37.584Z,87.34
2018-09-26T01:50:37.568Z,87.24
2018-09-26T01:51:37.559Z,87.05
2018-09-26T01:52:37.562Z,86.77
2018-09-26T01:53:37.548Z,87.24
2018-09-26T01:54:37.538Z,87.24
2018-09-26T01:55:37.531Z,87.72
2018-09-26T01:56:37.530Z,87.62
2018-09-26T01:57:37.514Z,87.53
2018-09-26T01:58:37.511Z,87.53
2018-09-26T01:59:37.509Z,87.91
2018-09-26T02:00:37.493Z,87.43
2018-09-26T02:01:37.484Z,87.53
2018-09-26T02:02:37.475Z,87.82
2018-09-26T02:03:37.472Z,87.34
2018-09-26T02:04:37.460Z,87.82
2018-09-26T02:05:37.456Z,87.82
2018-09-26T02:06:37.451Z,87.91
2018-09-26T02:07:37.436Z,88.10
2018-09-26T02:08:37.428Z,87.91
2018-09-26T02:09:38.245Z,87.91
2018-09-26T02:10:37.416Z,87.82
2018-09-26T02:11:37.404Z,88.57
2018-09-26T02:12:37.400Z,88.48
2018-09-26T02:13:37.389Z,88.01
2018-09-26T02:14:37.380Z,88.20
2018-09-26T02:15:37.374Z,88.10
2018-09-26T02:16:37.370Z,88.48
2018-09-26T02:17:37.358Z,88.57
2018-09-26T02:18:37.350Z,88.29
2018-09-26T02:19:37.346Z,88.48
2018-09-26T02:20:37.333Z,88.29
2018-09-26T02:21:37.406Z,88.39
2018-09-26T02:22:37.317Z,88.20
2018-09-26T02:23:37.350Z,88.81
2018-09-26T02:24:37.300Z,88.86
2018-09-26T02:25:37.293Z,88.43
2018-09-26T02:26:37.284Z,88.48
2018-09-26T02:27:37.277Z,88.15
2018-09-26T02:28:37.268Z,88.53
2018-09-26T02:29:37.262Z,88.72
2018-09-26T02:30:37.251Z,88.24
2018-09-26T02:31:37.245Z,89.00
2018-09-26T02:32:37.237Z,88.81
2018-09-26T02:33:37.228Z,88.72
2018-09-26T02:34:37.219Z,88.81
2018-09-26T02:35:37.215Z,88.76
2018-09-26T02:36:37.204Z,88.91
2018-09-26T02:37:37.194Z,88.72
2018-09-26T02:38:37.186Z,88.72
2018-09-26T02:39:37.181Z,89.14
2018-09-26T02:40:37.170Z,89.00
2018-09-26T02:41:37.161Z,88.76
2018-09-26T02:42:37.157Z,88.10
2018-09-26T02:43:37.145Z,88.57
2018-09-26T02:44:37.138Z,88.57
2018-09-26T02:45:37.129Z,88.67
2018-09-26T02:46:37.123Z,88.67
2018-09-26T02:47:37.115Z,88.57
2018-09-26T02:48:37.105Z,88.20
2018-09-26T02:49:37.100Z,88.20
2018-09-26T02:50:37.089Z,88.29
2018-09-26T02:51:37.099Z,88.57
2018-09-26T02:52:37.076Z,88.29
2018-09-26T02:53:37.086Z,88.29
2018-09-26T02:54:37.058Z,88.39
2018-09-26T02:55:37.092Z,88.29
2018-09-26T02:56:37.045Z,88.57
2018-09-26T02:57:37.033Z,88.39
2018-09-26T02:58:37.025Z,88.29
2018-09-26T02:59:37.022Z,88.57
2018-09-26T03:00:37.008Z,88.20
2018-09-26T03:01:37.001Z,88.39
2018-09-26T03:02:36.992Z,88.48
2018-09-26T03:03:36.984Z,88.57
2018-09-26T03:04:36.975Z,88.39
2018-09-26T03:05:36.968Z,88.57
2018-09-26T03:06:36.961Z,88.48
2018-09-26T03:07:36.951Z,88.67
2018-09-26T03:08:36.948Z,88.48
2018-09-26T03:09:36.936Z,87.72
2018-09-26T03:10:37.022Z,88.01
2018-09-26T03:11:36.923Z,87.91
2018-09-26T03:12:36.920Z,88.10
2018-09-26T03:13:36.904Z,87.91
2018-09-26T03:14:36.897Z,87.91
2018-09-26T03:15:36.889Z,87.91
2018-09-26T03:16:36.880Z,87.91
2018-09-26T03:17:36.906Z,87.91
2018-09-26T03:18:36.870Z,87.82
2018-09-26T03:19:36.856Z,87.72
2018-09-26T03:20:36.849Z,87.91
2018-09-26T03:21:36.843Z,88.01
2018-09-26T03:22:36.834Z,88.01
2018-09-26T03:23:36.824Z,88.01
2018-09-26T03:24:36.821Z,88.10
2018-09-26T03:25:36.808Z,87.91
2018-09-26T03:26:36.801Z,87.91
2018-09-26T03:27:36.794Z,88.01
2018-09-26T03:28:36.784Z,88.01
2018-09-26T03:29:36.778Z,87.91
2018-09-26T03:30:36.769Z,87.72
2018-09-26T03:31:36.771Z,87.82
2018-09-26T03:32:36.752Z,87.53
2018-09-26T03:33:36.749Z,87.82
2018-09-26T03:34:36.742Z,87.53
2018-09-26T03:35:36.731Z,87.72
2018-09-26T03:36:36.722Z,87.53
2018-09-26T03:37:36.716Z,87.62
2018-09-26T03:38:36.709Z,87.24
2018-09-26T03:39:36.698Z,87.53
2018-09-26T03:40:36.691Z,87.72
2018-09-26T03:41:37.403Z,87.82
2018-09-26T03:42:36.676Z,87.72
2018-09-26T03:43:36.665Z,87.53
2018-09-26T03:44:36.661Z,87.72
2018-09-26T03:45:36.651Z,87.53
2018-09-26T03:46:36.644Z,87.34
2018-09-26T03:47:36.641Z,87.15
2018-09-26T03:48:36.626Z,87.53
2018-09-26T03:49:36.618Z,87.72
2018-09-26T03:50:36.611Z,87.53
2018-09-26T03:51:36.604Z,87.82
2018-09-26T03:52:36.595Z,87.91
2018-09-26T03:53:36.589Z,87.82
2018-09-26T03:54:36.590Z,87.53
2018-09-26T03:55:36.572Z,87.72
2018-09-26T03:56:36.562Z,87.62
2018-09-26T03:57:36.554Z,87.82
2018-09-26T03:58:36.550Z,88.01
2018-09-26T03:59:36.541Z,87.53
2018-09-26T04:00:36.531Z,87.15
2018-09-26T04:01:36.529Z,87.62
2018-09-26T04:02:36.520Z,87.62
2018-09-26T04:03:36.512Z,88.01
2018-09-26T04:04:36.504Z,87.62
2018-09-26T04:05:36.500Z,87.43
2018-09-26T04:06:36.483Z,87.34
2018-09-26T04:07:36.478Z,87.68
2018-09-26T04:08:36.523Z,87.53
2018-09-26T04:09:36.471Z,87.39
2018-09-26T04:10:36.452Z,87.77
2018-09-26T04:11:36.448Z,88.10
2018-09-26T04:12:36.506Z,88.01
2018-09-26T04:13:36.436Z,88.10
2018-09-26T04:14:36.421Z,87.72
2018-09-26T04:15:36.419Z,88.01
2018-09-26T04:16:36.411Z,87.72
2018-09-26T04:17:36.397Z,87.91
2018-09-26T04:18:36.392Z,87.91
2018-09-26T04:19:36.381Z,87.15
2018-09-26T04:20:36.373Z,87.53
2018-09-26T04:21:36.369Z,88.01
2018-09-26T04:22:36.357Z,87.72
2018-09-26T04:23:36.353Z,87.62
2018-09-26T04:24:36.341Z,87.72
2018-09-26T04:25:36.335Z,87.53
2018-09-26T04:26:36.501Z,87.91
2018-09-26T04:27:36.398Z,87.53
2018-09-26T04:28:36.310Z,87.72
2018-09-26T04:29:36.349Z,87.72
2018-09-26T04:30:36.302Z,87.53
2018-09-26T04:31:36.286Z,87.62
2018-09-26T04:32:36.365Z,87.62
2018-09-26T04:33:36.369Z,87.62
2018-09-26T04:34:36.264Z,87.53
2018-09-26T04:35:36.253Z,87.72
2018-09-26T04:36:36.247Z,87.62
2018-09-26T04:37:36.242Z,87.43
2018-09-26T04:38:36.301Z,87.43
2018-09-26T04:39:36.273Z,87.62
2018-09-26T04:40:36.213Z,87.43
2018-09-26T04:41:36.209Z,87.91
2018-09-26T04:42:36.201Z,87.53
2018-09-26T04:43:36.191Z,87.53
2018-09-26T04:44:36.190Z,87.30
2018-09-26T04:45:36.175Z,87.15
2018-09-26T04:46:36.167Z,87.62
2018-09-26T04:47:36.159Z,87.91
2018-09-26T04:48:36.151Z,87.62
2018-09-26T04:49:36.143Z,87.91
2018-09-26T04:50:36.136Z,87.72
2018-09-26T04:51:36.126Z,87.43
2018-09-26T04:52:36.123Z,87.91
2018-09-26T04:53:36.112Z,87.53
2018-09-26T04:54:36.105Z,87.72
2018-09-26T04:55:36.093Z,87.43
2018-09-26T04:56:36.087Z,87.53
2018-09-26T04:57:36.080Z,87.34
2018-09-26T04:58:36.072Z,87.49
2018-09-26T04:59:36.067Z,87.58
2018-09-26T05:00:36.059Z,87.91
2018-09-26T05:01:36.048Z,87.77
2018-09-26T05:02:36.041Z,87.77
2018-09-26T05:03:36.034Z,87.96
2018-09-26T05:04:36.026Z,87.77
2018-09-26T05:05:36.017Z,87.68
2018-09-26T05:06:36.013Z,87.87
2018-09-26T05:07:35.998Z,87.68
2018-09-26T05:08:36.000Z,87.68
2018-09-26T05:09:35.981Z,88.43
2018-09-26T05:10:35.984Z,88.53
2018-09-26T05:11:35.965Z,88.43
2018-09-26T05:12:35.961Z,88.53
2018-09-26T05:13:36.565Z,88.15
2018-09-26T05:14:35.983Z,88.15
2018-09-26T05:15:35.939Z,88.24
2018-09-26T05:16:35.926Z,88.24
2018-09-26T05:17:35.916Z,88.43
2018-09-26T05:18:35.909Z,88.06
2018-09-26T05:19:35.906Z,88.34
2018-09-26T05:20:35.938Z,88.15
2018-09-26T05:21:35.883Z,88.43
2018-09-26T05:22:35.886Z,88.34
2018-09-26T05:23:35.868Z,88.24
2018-09-26T05:24:35.864Z,88.53
2018-09-26T05:25:35.850Z,88.24
2018-09-26T05:26:35.845Z,88.24
2018-09-26T05:27:35.834Z,88.15
2018-09-26T05:28:35.824Z,88.15
2018-09-26T05:29:35.819Z,88.34
2018-09-26T05:30:35.808Z,88.24
2018-09-26T05:31:35.798Z,88.53
2018-09-26T05:32:35.792Z,88.62
2018-09-26T05:33:35.787Z,88.72
2018-09-26T05:34:35.777Z,88.53
2018-09-26T05:35:35.764Z,88.62
2018-09-26T05:36:35.762Z,88.53
2018-09-26T05:37:35.748Z,88.24
2018-09-26T05:38:35.742Z,88.24
2018-09-26T05:39:35.730Z,88.15
2018-09-26T05:40:35.727Z,88.15
2018-09-26T05:41:35.783Z,88.43
2018-09-26T05:42:35.706Z,88.43
2018-09-26T05:43:35.699Z,88.62
2018-09-26T05:44:35.690Z,88.15
2018-09-26T05:45:35.681Z,88.72
2018-09-26T05:46:35.672Z,88.53
2018-09-26T05:47:35.663Z,88.72
2018-09-26T05:48:35.654Z,88.72
2018-09-26T05:49:35.650Z,88.43
2018-09-26T05:50:35.639Z,88.72
2018-09-26T05:51:35.632Z,88.24
2018-09-26T05:52:35.637Z,88.62
2018-09-26T05:53:35.692Z,88.43
2018-09-26T05:54:35.611Z,88.34
2018-09-26T05:55:35.596Z,88.43
2018-09-26T05:56:35.588Z,88.34
2018-09-26T05:57:35.582Z,88.24
2018-09-26T05:58:35.572Z,88.43
2018-09-26T05:59:35.617Z,88.43
2018-09-26T06:00:35.587Z,88.53
2018-09-26T06:01:35.550Z,88.34
2018-09-26T06:02:35.536Z,88.43
2018-09-26T06:03:35.528Z,88.24
2018-09-26T06:04:35.521Z,88.62
2018-09-26T06:05:35.576Z,88.62
2018-09-26T06:06:35.512Z,88.62
2018-09-26T06:07:35.495Z,88.62
2018-09-26T06:08:35.493Z,88.24
2018-09-26T06:09:35.482Z,88.53
2018-09-26T06:10:35.477Z,88.53
2018-09-26T06:11:35.461Z,87.77
2018-09-26T06:12:35.504Z,87.96
2018-09-26T06:13:35.443Z,87.68
2018-09-26T06:14:35.436Z,87.87
2018-09-26T06:15:35.428Z,88.06
2018-09-26T06:16:35.423Z,87.91
2018-09-26T06:17:35.412Z,88.01
2018-09-26T06:18:35.403Z,87.58
2018-09-26T06:19:35.394Z,87.77
2018-09-26T06:20:35.392Z,87.49
2018-09-26T06:21:35.379Z,87.43
2018-09-26T06:22:35.370Z,87.53
2018-09-26T06:23:35.359Z,87.30
2018-09-26T06:24:35.357Z,87.68
2018-09-26T06:25:35.345Z,87.58
2018-09-26T06:26:35.337Z,87.58
2018-09-26T06:27:35.331Z,87.77
2018-09-26T06:28:35.320Z,87.68
2018-09-26T06:29:35.311Z,87.62
2018-09-26T06:30:35.304Z,87.72
2018-09-26T06:31:35.295Z,87.91
2018-09-26T06:32:35.287Z,87.82
2018-09-26T06:33:35.277Z,87.91
2018-09-26T06:34:35.269Z,87.91
2018-09-26T06:35:35.263Z,87.87
2018-09-26T06:36:35.251Z,87.91
2018-09-26T06:37:35.243Z,87.77
2018-09-26T06:38:35.238Z,88.01
2018-09-26T06:39:35.227Z,87.82
2018-09-26T06:40:35.302Z,88.01
2018-09-26T06:41:35.212Z,87.82
2018-09-26T06:42:35.207Z,87.82
2018-09-26T06:43:35.195Z,87.53
2018-09-26T06:44:35.184Z,87.72
2018-09-26T06:45:35.729Z,87.82
2018-09-26T06:46:35.170Z,87.43
2018-09-26T06:47:35.253Z,87.43
2018-09-26T06:48:35.152Z,87.91
2018-09-26T06:49:35.144Z,87.53
2018-09-26T06:50:35.138Z,87.72
2018-09-26T06:51:35.127Z,87.72
2018-09-26T06:52:35.119Z,87.91
2018-09-26T06:53:35.110Z,87.24
2018-09-26T06:54:35.105Z,87.15
2018-09-26T06:55:35.098Z,86.96
2018-09-26T06:56:35.089Z,87.05
2018-09-26T06:57:35.079Z,87.24
2018-09-26T06:58:35.070Z,87.15
2018-09-26T06:59:35.065Z,86.68
2018-09-26T07:00:35.053Z,86.39
2018-09-26T07:01:35.046Z,86.96
2018-09-26T07:02:35.038Z,86.82
2018-09-26T07:03:35.029Z,86.91
2018-09-26T07:04:35.021Z,86.63
2018-09-26T07:05:35.014Z,86.72
2018-09-26T07:06:35.004Z,86.82
2018-09-26T07:07:34.996Z,86.53
2018-09-26T07:08:34.994Z,86.53
2018-09-26T07:09:34.986Z,86.63
2018-09-26T07:10:34.974Z,86.91
2018-09-26T07:11:34.966Z,86.63
2018-09-26T07:12:34.958Z,86.43
2018-09-26T07:13:34.953Z,86.15
2018-09-26T07:14:34.943Z,85.86
2018-09-26T07:15:34.934Z,85.77
2018-09-26T07:16:34.927Z,85.96
2018-09-26T07:17:34.920Z,86.05
2018-09-26T07:18:34.929Z,86.43
2018-09-26T07:19:34.906Z,86.34
2018-09-26T07:20:34.896Z,86.43
2018-09-26T07:21:34.891Z,86.05
2018-09-26T07:22:34.883Z,85.96
2018-09-26T07:23:34.880Z,86.00
2018-09-26T07:24:34.865Z,85.34
2018-09-26T07:25:34.859Z,85.72
2018-09-26T07:26:34.853Z,85.34
2018-09-26T07:27:34.850Z,85.72
2018-09-26T07:28:34.834Z,84.77
2018-09-26T07:29:34.830Z,85.34
2018-09-26T07:30:34.831Z,84.86
2018-09-26T07:31:34.886Z,84.48
2018-09-26T07:32:34.806Z,84.86
2018-09-26T07:33:34.803Z,84.86
2018-09-26T07:34:34.792Z,84.20
2018-09-26T07:35:34.790Z,84.48
2018-09-26T07:36:34.779Z,84.29
2018-09-26T07:37:34.825Z,84.48
2018-09-26T07:38:34.851Z,84.29
2018-09-26T07:39:34.754Z,84.33
2018-09-26T07:40:34.848Z,84.52
2018-09-26T07:41:34.797Z,84.01
2018-09-26T07:42:34.735Z,84.43
2018-09-26T07:43:34.727Z,84.52
2018-09-26T07:44:34.723Z,83.76
2018-09-26T07:45:34.799Z,84.14
2018-09-26T07:46:34.790Z,84.14
2018-09-26T07:47:34.708Z,84.33
2018-09-26T07:48:34.696Z,83.86
2018-09-26T07:49:34.718Z,83.76
2018-09-26T07:50:34.687Z,83.58
2018-09-26T07:51:34.702Z,83.67
2018-09-26T07:52:34.663Z,83.39
2018-09-26T07:53:34.685Z,83.19
2018-09-26T07:54:34.648Z,83.39
2018-09-26T07:55:34.641Z,82.91
2018-09-26T07:56:34.632Z,82.81
2018-09-26T07:57:34.628Z,82.76
2018-09-26T07:58:34.621Z,82.28
2018-09-26T07:59:34.621Z,82.48
2018-09-26T08:00:34.627Z,82.67
2018-09-26T08:01:34.607Z,82.09
2018-09-26T08:02:34.816Z,82.09
2018-09-26T08:03:34.587Z,81.81
2018-09-26T08:04:34.582Z,81.62
2018-09-26T08:05:34.584Z,81.62
2018-09-26T08:06:34.615Z,82.09
2018-09-26T08:07:34.605Z,81.90
2018-09-26T08:08:34.553Z,82.09
2018-09-26T08:09:34.547Z,80.86
2018-09-26T08:10:34.553Z,81.14
2018-09-26T08:11:34.613Z,80.33
2018-09-26T08:12:34.530Z,79.75
2018-09-26T08:13:34.526Z,79.57
2018-09-26T08:14:34.518Z,79.75
2018-09-26T08:15:34.509Z,80.04
2018-09-26T08:16:34.503Z,78.90
2018-09-26T08:17:35.036Z,79.09
2018-09-26T08:18:34.544Z,78.80
2018-09-26T08:19:34.481Z,78.33
2018-09-26T08:20:34.478Z,77.85
2018-09-26T08:21:34.477Z,77.76
2018-09-26T08:22:34.473Z,78.23
2018-09-26T08:23:34.467Z,80.52
2018-09-26T08:24:34.451Z,79.09
2018-09-26T08:25:34.490Z,77.61
2018-09-26T08:26:34.448Z,76.94
2018-09-26T08:27:34.434Z,77.03
2018-09-26T08:28:34.434Z,76.56
2018-09-26T08:29:34.424Z,75.70
2018-09-26T08:30:34.419Z,75.89
2018-09-26T08:31:34.412Z,75.60
2018-09-26T08:32:34.405Z,75.89
2018-09-26T08:33:34.398Z,76.18
2018-09-26T08:34:34.394Z,76.18
2018-09-26T08:35:34.386Z,76.18
2018-09-26T08:36:34.395Z,76.08
2018-09-26T08:37:34.375Z,76.37
2018-09-26T08:38:34.369Z,76.08
2018-09-26T08:39:34.362Z,75.04
2018-09-26T08:40:34.355Z,74.12
2018-09-26T08:41:34.339Z,74.21
2018-09-26T08:42:34.344Z,73.83
2018-09-26T08:43:34.338Z,74.21
2018-09-26T08:44:34.333Z,74.31
2018-09-26T08:45:34.330Z,74.12
2018-09-26T08:46:34.325Z,74.21
2018-09-26T08:47:34.316Z,74.31
2018-09-26T08:48:34.310Z,73.93
2018-09-26T08:49:34.305Z,74.21
2018-09-26T08:50:34.306Z,74.21
2018-09-26T08:51:34.296Z,74.02
2018-09-26T08:52:34.302Z,73.26
2018-09-26T08:53:34.289Z,74.60
2018-09-26T08:54:34.276Z,74.02
2018-09-26T08:55:34.277Z,72.06
2018-09-26T08:56:34.269Z,72.34
2018-09-26T08:57:34.264Z,71.58
2018-09-26T08:58:34.262Z,70.92
2018-09-26T08:59:34.312Z,69.96
2018-09-26T09:00:34.245Z,69.29
2018-09-26T09:01:34.242Z,69.39
2018-09-26T09:02:34.275Z,68.72
2018-09-26T09:03:34.228Z,68.63
2018-09-26T09:04:34.225Z,68.63
2018-09-26T09:05:34.224Z,67.68
2018-09-26T09:06:34.214Z,68.18
2018-09-26T09:07:34.210Z,67.90
2018-09-26T09:08:34.206Z,68.09
2018-09-26T09:09:34.202Z,68.09
2018-09-26T09:10:34.195Z,66.94
2018-09-26T09:11:34.219Z,66.75
2018-09-26T09:12:34.185Z,66.28
2018-09-26T09:13:34.181Z,65.80
2018-09-26T09:14:34.245Z,65.80
2018-09-26T09:15:34.169Z,65.99
2018-09-26T09:16:34.164Z,65.99
2018-09-26T09:17:34.161Z,65.52
2018-09-26T09:18:34.155Z,65.23
2018-09-26T09:19:34.150Z,65.04
2018-09-26T09:20:34.148Z,64.37
2018-09-26T09:21:34.150Z,64.18
2018-09-26T09:22:34.152Z,65.33
2018-09-26T09:23:34.131Z,64.50
2018-09-26T09:24:34.128Z,64.59
2018-09-26T09:25:34.126Z,63.83
2018-09-26T09:26:34.122Z,63.64
2018-09-26T09:27:34.122Z,64.21
2018-09-26T09:28:34.109Z,63.54
2018-09-26T09:29:34.106Z,62.78
2018-09-26T09:30:34.105Z,62.78
2018-09-26T09:31:34.094Z,63.07
2018-09-26T09:32:34.091Z,62.71
2018-09-26T09:33:34.091Z,62.91
2018-09-26T09:34:34.181Z,62.81
2018-09-26T09:35:34.077Z,62.52
2018-09-26T09:36:34.151Z,62.71
2018-09-26T09:37:34.069Z,61.86
2018-09-26T09:38:34.078Z,61.95
2018-09-26T09:39:34.061Z,61.29
2018-09-26T09:40:34.067Z,61.86
2018-09-26T09:41:34.062Z,61.29
2018-09-26T09:42:34.059Z,61.60
2018-09-26T09:43:34.050Z,61.22
2018-09-26T09:45:34.140Z,60.93
2018-09-26T09:47:34.141Z,60.27
2018-09-26T09:48:34.133Z,60.07
2018-09-26T09:49:34.436Z,59.59
2018-09-26T09:50:34.119Z,59.02
2018-09-26T09:51:55.132Z,58.16
2018-09-26T09:52:34.116Z,58.64
2018-09-26T09:53:34.109Z,57.62
2018-09-26T09:54:34.109Z,56.38
2018-09-26T09:55:34.105Z,56.38
2018-09-26T09:56:34.120Z,56.18
2018-09-26T09:57:55.103Z,55.71
2018-09-26T09:58:34.098Z,55.42
2018-09-26T09:59:34.092Z,53.63
2018-09-26T10:00:34.082Z,53.73
2018-09-26T10:01:34.090Z,52.20
2018-09-26T10:02:34.113Z,51.24
2018-09-26T10:03:55.750Z,51.62
2018-09-26T10:04:34.073Z,51.34
2018-09-26T10:05:34.070Z,51.62
2018-09-26T10:06:34.093Z,50.95
2018-09-26T10:07:34.073Z,50.38
2018-09-26T10:08:34.086Z,50.09
2018-09-26T10:09:55.068Z,51.34
2018-09-26T10:10:34.189Z,50.86
2018-09-26T10:11:34.056Z,51.72
2018-09-26T10:12:34.043Z,51.05
2018-09-26T10:13:34.040Z,50.67
2018-09-26T10:14:34.085Z,50.60
2018-09-26T10:15:55.054Z,50.09
2018-09-26T10:16:34.031Z,50.48
2018-09-26T10:17:34.072Z,50.41
2018-09-26T10:18:34.039Z,50.12
2018-09-26T10:19:34.058Z,49.84
2018-09-26T10:20:34.906Z,50.31
2018-09-26T10:21:55.025Z,50.02
2018-09-26T10:22:34.029Z,51.65
2018-09-26T10:23:34.012Z,50.12
2018-09-26T10:24:34.005Z,50.21
2018-09-26T10:25:34.008Z,50.21
2018-09-26T10:26:34.063Z,50.12
2018-09-26T10:27:55.012Z,50.21
2018-09-26T10:28:34.012Z,49.19
2018-09-26T10:29:33.996Z,48.78
2018-09-26T10:30:33.995Z,48.71
2018-09-26T10:31:33.987Z,48.90
2018-09-26T10:32:34.014Z,49.00
2018-09-26T10:33:55.087Z,49.00
2018-09-26T10:34:33.981Z,50.05
2018-09-26T10:35:33.984Z,49.29
2018-09-26T10:36:33.973Z,48.42
2018-09-26T10:37:33.976Z,49.38
2018-09-26T10:38:33.973Z,49.50
2018-09-26T10:39:54.976Z,48.44
2018-09-26T10:40:33.966Z,47.78
2018-09-26T10:41:33.966Z,47.39
2018-09-26T10:42:33.965Z,46.72
2018-09-26T10:43:33.961Z,47.01
2018-09-26T10:44:33.971Z,47.11
2018-09-26T10:45:54.968Z,46.72
2018-09-26T10:46:33.979Z,47.30
2018-09-26T10:47:33.946Z,46.65
2018-09-26T10:48:33.946Z,47.03
2018-09-26T10:49:33.940Z,45.89
2018-09-26T10:50:33.945Z,45.50
2018-09-26T10:51:54.968Z,45.79
2018-09-26T10:52:33.971Z,46.08
2018-09-26T10:53:33.935Z,45.02
2018-09-26T10:54:33.971Z,45.12
2018-09-26T10:55:33.931Z,45.31
2018-09-26T10:56:34.062Z,45.50
2018-09-26T10:57:54.935Z,46.17
2018-09-26T10:58:33.930Z,46.48
2018-09-26T10:59:33.929Z,45.90
2018-09-26T11:00:33.926Z,44.85
2018-09-26T11:01:33.939Z,44.47
2018-09-26T11:02:33.999Z,44.95
2018-09-26T11:03:54.972Z,45.23
2018-09-26T11:04:33.919Z,44.85
2018-09-26T11:05:33.925Z,45.33
2018-09-26T11:06:33.921Z,44.76
2018-09-26T11:07:33.928Z,45.81
2018-09-26T11:08:33.917Z,45.72
2018-09-26T11:09:54.973Z,45.23
2018-09-26T11:10:33.925Z,45.04
2018-09-26T11:11:33.924Z,44.95
2018-09-26T11:12:33.958Z,44.01
2018-09-26T11:13:33.937Z,43.73
2018-09-26T11:14:33.937Z,44.20
2018-09-26T11:15:54.918Z,44.30
2018-09-26T11:16:33.907Z,44.20
2018-09-26T11:17:33.907Z,44.30
2018-09-26T11:18:33.915Z,43.63
2018-09-26T11:19:33.901Z,42.86
2018-09-26T11:20:33.905Z,43.53
2018-09-26T11:21:54.921Z,43.53
2018-09-26T11:22:33.904Z,44.11
2018-09-26T11:23:33.898Z,42.77
2018-09-26T11:24:33.967Z,43.15
2018-09-26T11:25:33.977Z,42.10
2018-09-26T11:26:33.924Z,42.19
2018-09-26T11:27:54.908Z,42.11
2018-09-26T11:28:33.893Z,41.80
2018-09-26T11:29:33.906Z,41.44
2018-09-26T11:30:33.902Z,41.90
2018-09-26T11:31:33.945Z,42.21
2018-09-26T11:32:33.897Z,41.93
2018-09-26T11:33:54.907Z,42.02
2018-09-26T11:34:33.918Z,42.60
2018-09-26T11:35:33.889Z,42.11
2018-09-26T11:36:33.885Z,41.83
2018-09-26T11:37:33.900Z,42.69
2018-09-26T11:38:33.894Z,41.83
2018-09-26T11:39:54.902Z,41.73
2018-09-26T11:40:35.517Z,41.25
2018-09-26T11:41:33.890Z,41.63
2018-09-26T11:42:33.897Z,41.16
2018-09-26T11:43:33.931Z,41.35
2018-09-26T11:44:33.899Z,41.06
2018-09-26T11:45:54.903Z,41.54
2018-09-26T11:46:33.896Z,42.02
2018-09-26T11:47:33.923Z,42.21
2018-09-26T11:48:33.886Z,41.93
2018-09-26T11:49:33.881Z,43.48
2018-09-26T11:50:33.886Z,43.55
2018-09-26T11:51:54.890Z,41.94
2018-09-26T11:52:34.275Z,42.43
2018-09-26T11:53:33.916Z,42.13
2018-09-26T11:54:33.897Z,41.25
2018-09-26T11:55:33.885Z,41.17
2018-09-26T11:56:33.887Z,41.08
2018-09-26T11:57:54.889Z,41.56
2018-09-26T11:58:33.896Z,41.66
2018-09-26T11:59:34.038Z,41.46
2018-09-26T12:00:33.907Z,41.85
2018-09-26T12:01:33.888Z,41.27
2018-09-26T12:02:33.975Z,40.89
2018-09-26T12:03:54.898Z,40.79
2018-09-26T12:04:33.978Z,40.60
2018-09-26T12:05:34.011Z,40.89
2018-09-26T12:06:33.890Z,40.60
2018-09-26T12:07:33.892Z,40.02
2018-09-26T12:08:33.884Z,39.64
2018-09-26T12:09:54.903Z,39.35
2018-09-26T12:10:33.879Z,38.49
2018-09-26T12:11:33.878Z,38.78
2018-09-26T12:12:33.882Z,38.49
2018-09-26T12:13:33.886Z,38.68
2018-09-26T12:14:34.054Z,38.68
2018-09-26T12:15:54.889Z,39.16
2018-09-26T12:16:33.880Z,39.54
2018-09-26T12:17:33.916Z,39.26
2018-09-26T12:18:33.877Z,38.29
2018-09-26T12:19:33.880Z,38.49
2018-09-26T12:20:33.904Z,38.39
2018-09-26T12:21:54.912Z,38.01
2018-09-26T12:22:33.990Z,38.01
2018-09-26T12:23:34.695Z,38.10
2018-09-26T12:24:33.946Z,38.01
2018-09-26T12:25:33.894Z,38.20
2018-09-26T12:26:33.883Z,37.91
2018-09-26T12:27:55.142Z,38.39
2018-09-26T12:28:33.916Z,38.20
2018-09-26T12:29:33.886Z,37.82
2018-09-26T12:30:33.883Z,38.01
2018-09-26T12:31:34.136Z,38.01
2018-09-26T12:32:33.879Z,38.59
2018-09-26T12:33:54.894Z,38.49
2018-09-26T12:34:33.879Z,38.78
2018-09-26T12:35:33.888Z,38.87
2018-09-26T12:36:33.881Z,38.39
2018-09-26T12:37:33.894Z,38.68
2018-09-26T12:38:34.487Z,39.16
2018-09-26T12:39:54.892Z,39.95
2018-09-26T12:40:33.881Z,39.47
2018-09-26T12:41:33.882Z,39.35
2018-09-26T12:42:33.897Z,38.51
2018-09-26T12:43:33.878Z,40.05
2018-09-26T12:44:33.889Z,38.70
2018-09-26T12:45:54.892Z,38.12
2018-09-26T12:46:33.877Z,38.02
2018-09-26T12:47:33.885Z,37.07
2018-09-26T12:48:33.951Z,37.26
2018-09-26T12:49:33.894Z,38.12
2018-09-26T12:50:33.885Z,37.45
2018-09-26T12:51:54.910Z,38.32
2018-09-26T12:52:33.875Z,38.02
2018-09-26T12:53:33.894Z,39.56
2018-09-26T12:54:33.883Z,38.32